Terminal Aerodrome Forecast
Issued by NWS

Home | Current Version | Previous Version | Text Only | Print | Product List | Glossary On
Versions: 1 2 3 4 5 6 7 8 9 10 11 12 13 14 15 16 17 18 19 20 21 22 23 24 25 26 27 28
464
FTAK31 PANC 061140
TAFAVD
TAF
PAVD 061140Z 0612/0712 00000KT P6SM -SHRASN SCT005 SCT030 BKN050
      TEMPO 0612/0615 1SM -SHRASN BR BKN005
     FM061900 04004KT 5SM -SHSN BKN010 OVC030
     FM070000 04005KT 3SM -SN OVC010
     FM070900 VRB04KT P6SM -SHSN SCT015 BKN030
      AMD LTD TO CLD VIS AND WIND=

USA.gov is the U.S. government's official web portal to all federal, state and local government web resources and services.